createdAt,value
2019-02-19T00:01:06.741Z,55.48
2019-02-19T00:03:33.922Z,55.62
2019-02-19T00:06:09.228Z,55.71
2019-02-19T00:08:36.519Z,55.84
2019-02-19T00:11:03.682Z,55.90
2019-02-19T00:13:30.852Z,55.84
2019-02-19T00:15:58.053Z,55.96
2019-02-19T00:18:25.214Z,56.00
2019-02-19T00:20:52.404Z,55.97
2019-02-19T00:23:19.609Z,56.01
2019-02-19T00:25:47.002Z,56.22
2019-02-19T00:28:14.189Z,56.39
2019-02-19T00:30:41.353Z,56.14
2019-02-19T00:33:08.677Z,56.17
2019-02-19T00:35:35.837Z,56.62
2019-02-19T00:38:03.021Z,56.59
2019-02-19T00:40:30.234Z,56.44
2019-02-19T00:42:57.507Z,56.33
2019-02-19T00:45:24.681Z,56.37
2019-02-19T00:47:51.939Z,56.60
2019-02-19T00:50:19.101Z,56.69
2019-02-19T00:52:46.453Z,56.75
2019-02-19T00:55:13.615Z,56.81
2019-02-19T00:57:40.774Z,56.90
2019-02-19T01:00:08.808Z,56.96
2019-02-19T01:02:36.007Z,57.10
2019-02-19T01:05:03.302Z,57.30
2019-02-19T01:07:30.504Z,57.27
2019-02-19T01:09:57.676Z,57.43
2019-02-19T01:12:24.891Z,57.58
2019-02-19T01:14:52.226Z,57.68
2019-02-19T01:17:19.424Z,57.57
2019-02-19T01:19:46.689Z,57.58
2019-02-19T01:22:13.898Z,57.38
2019-02-19T01:24:41.051Z,57.49
2019-02-19T01:27:08.553Z,57.42
2019-02-19T01:29:35.738Z,57.55
2019-02-19T01:32:03.090Z,57.56
2019-02-19T01:34:30.269Z,57.90
2019-02-19T01:36:57.481Z,57.53
2019-02-19T01:39:24.707Z,57.39
2019-02-19T01:41:52.011Z,57.32
2019-02-19T01:44:19.219Z,57.36
2019-02-19T01:46:46.403Z,57.32
2019-02-19T01:49:13.598Z,57.26
2019-02-19T01:51:40.789Z,57.29
2019-02-19T01:54:07.959Z,57.39
2019-02-19T01:56:35.399Z,57.42
2019-02-19T01:59:02.595Z,57.36
2019-02-19T02:01:29.792Z,57.36
2019-02-19T02:03:57.015Z,57.31
2019-02-19T02:06:24.238Z,57.42
2019-02-19T02:08:51.431Z,58.00
2019-02-19T02:11:18.622Z,57.86
2019-02-19T02:13:45.879Z,57.75
2019-02-19T02:16:13.071Z,57.53
2019-02-19T02:18:40.225Z,57.30
2019-02-19T02:21:07.434Z,57.27
2019-02-19T02:23:34.657Z,57.35
2019-02-19T02:26:01.847Z,57.48
2019-02-19T02:28:29.234Z,57.73
2019-02-19T02:30:56.501Z,57.74
2019-02-19T02:33:23.661Z,57.54
2019-02-19T02:35:51.008Z,57.53
2019-02-19T02:38:18.213Z,57.56
2019-02-19T02:40:45.451Z,57.55
2019-02-19T02:43:12.626Z,57.53
2019-02-19T02:45:39.801Z,57.48
2019-02-19T02:48:06.983Z,57.40
2019-02-19T02:50:34.171Z,57.61
2019-02-19T02:53:01.483Z,57.60
2019-02-19T02:55:28.668Z,57.71
2019-02-19T02:57:55.957Z,57.63
2019-02-19T03:00:23.158Z,57.58
2019-02-19T03:02:50.314Z,57.44
2019-02-19T03:05:17.584Z,57.51
2019-02-19T03:07:50.938Z,57.44
2019-02-19T03:10:18.102Z,57.38
2019-02-19T03:12:45.440Z,57.31
2019-02-19T03:15:12.975Z,57.27
2019-02-19T03:17:40.188Z,57.32
2019-02-19T03:20:07.338Z,57.18
2019-02-19T03:22:34.629Z,57.19
2019-02-19T03:25:01.909Z,57.16
2019-02-19T03:27:29.084Z,57.20
2019-02-19T03:29:56.316Z,57.06
2019-02-19T03:32:23.486Z,57.49
2019-02-19T03:34:50.788Z,57.24
2019-02-19T03:37:17.976Z,57.12
2019-02-19T03:39:45.163Z,56.95
2019-02-19T03:42:12.383Z,56.86
2019-02-19T03:44:39.964Z,56.78
2019-02-19T03:47:07.213Z,56.88
2019-02-19T03:49:34.423Z,56.85
2019-02-19T03:52:01.759Z,56.96
2019-02-19T03:54:28.946Z,56.73
2019-02-19T03:56:56.144Z,56.94
2019-02-19T03:59:23.428Z,57.02
2019-02-19T04:01:50.855Z,57.23
2019-02-19T04:04:18.167Z,57.19
2019-02-19T04:06:47.288Z,57.06
2019-02-19T04:09:14.571Z,56.87
2019-02-19T04:11:41.847Z,56.51
2019-02-19T04:14:09.033Z,56.95
2019-02-19T04:16:36.263Z,57.14
2019-02-19T04:19:03.555Z,56.89
2019-02-19T04:21:30.730Z,56.69
2019-02-19T04:23:57.942Z,56.61
2019-02-19T04:26:25.502Z,56.67
2019-02-19T04:28:52.854Z,56.48
2019-02-19T04:31:20.164Z,56.50
2019-02-19T04:33:47.353Z,56.81
2019-02-19T04:36:14.522Z,56.77
2019-02-19T04:38:41.697Z,57.03
2019-02-19T04:41:08.992Z,57.12
2019-02-19T04:43:36.182Z,57.03
2019-02-19T04:46:03.439Z,57.05
2019-02-19T04:48:30.636Z,57.13
2019-02-19T04:50:57.825Z,57.30
2019-02-19T04:53:24.997Z,57.40
2019-02-19T04:55:52.182Z,57.41
2019-02-19T04:58:19.416Z,57.51
2019-02-19T05:00:46.578Z,57.50
2019-02-19T05:03:13.753Z,57.39
2019-02-19T05:05:41.039Z,57.48
2019-02-19T05:08:08.234Z,57.39
2019-02-19T05:10:35.371Z,57.31
2019-02-19T05:13:02.692Z,57.38
2019-02-19T05:15:29.881Z,57.32
2019-02-19T05:17:57.072Z,57.23
2019-02-19T05:20:24.291Z,57.28
2019-02-19T05:22:51.554Z,57.18
2019-02-19T05:25:18.756Z,57.56
2019-02-19T05:27:45.935Z,57.42
2019-02-19T05:30:13.163Z,57.11
2019-02-19T05:32:40.342Z,56.92
2019-02-19T05:35:07.521Z,57.04
2019-02-19T05:37:34.723Z,56.96
2019-02-19T05:40:01.880Z,57.01
2019-02-19T05:42:29.212Z,56.80
2019-02-19T05:44:56.554Z,56.77
2019-02-19T05:47:23.695Z,56.68
2019-02-19T05:49:51.003Z,56.58
2019-02-19T05:52:18.213Z,56.84
2019-02-19T05:54:45.501Z,56.43
2019-02-19T05:57:12.739Z,56.11
2019-02-19T05:59:39.942Z,55.91
2019-02-19T06:02:07.218Z,55.91
2019-02-19T06:04:34.442Z,55.76
2019-02-19T06:07:01.675Z,55.51
2019-02-19T06:09:29.042Z,55.57
2019-02-19T06:11:56.249Z,55.57
2019-02-19T06:14:23.410Z,56.04
2019-02-19T06:16:58.285Z,56.50
2019-02-19T06:19:19.751Z,56.26
2019-02-19T06:21:46.984Z,56.50
2019-02-19T06:24:14.414Z,56.51
2019-02-19T06:26:41.602Z,56.51
2019-02-19T06:29:08.797Z,56.64
2019-02-19T06:31:36.026Z,56.64
2019-02-19T06:34:03.207Z,56.52
2019-02-19T06:36:30.445Z,56.55
2019-02-19T06:38:57.678Z,56.39
2019-02-19T06:41:24.907Z,56.45
2019-02-19T06:43:52.190Z,56.56
2019-02-19T06:46:19.333Z,56.44
2019-02-19T06:48:46.533Z,56.58
2019-02-19T06:51:13.736Z,56.52
2019-02-19T06:53:41.007Z,56.42
2019-02-19T06:56:08.289Z,56.49
2019-02-19T06:58:35.535Z,56.70
2019-02-19T07:01:02.964Z,56.86
2019-02-19T07:03:36.949Z,56.83
2019-02-19T07:06:04.139Z,56.83
2019-02-19T07:08:31.403Z,56.83
2019-02-19T07:10:58.619Z,56.77
2019-02-19T07:13:25.882Z,56.80
2019-02-19T07:15:53.051Z,56.76
2019-02-19T07:18:21.189Z,56.71
2019-02-19T07:20:48.640Z,57.01
2019-02-19T07:23:15.953Z,56.87
2019-02-19T07:25:43.251Z,56.46
2019-02-19T07:28:10.457Z,56.10
2019-02-19T07:30:37.704Z,56.07
2019-02-19T07:33:04.875Z,55.69
2019-02-19T07:35:32.087Z,55.70
2019-02-19T07:37:59.329Z,55.65
2019-02-19T07:40:26.548Z,55.56
2019-02-19T07:42:53.812Z,55.60
2019-02-19T07:45:21.054Z,55.40
2019-02-19T07:47:48.320Z,55.50
2019-02-19T07:50:15.528Z,55.44
2019-02-19T07:52:42.686Z,55.40
2019-02-19T07:55:09.992Z,55.38
2019-02-19T07:57:37.216Z,55.28
2019-02-19T08:00:04.461Z,55.28
2019-02-19T08:02:31.673Z,55.17
2019-02-19T08:04:58.906Z,55.08
2019-02-19T08:07:26.292Z,54.99
2019-02-19T08:09:53.462Z,54.94
2019-02-19T08:12:20.680Z,54.71
2019-02-19T08:14:47.822Z,54.48
2019-02-19T08:17:15.078Z,54.59
2019-02-19T08:19:42.307Z,54.72
2019-02-19T08:22:09.567Z,54.62
2019-02-19T08:24:36.783Z,54.64
2019-02-19T08:27:04.055Z,54.39
2019-02-19T08:29:31.244Z,54.34
2019-02-19T08:31:58.421Z,54.17
2019-02-19T08:34:25.735Z,54.04
2019-02-19T08:36:52.956Z,54.03
2019-02-19T08:39:20.156Z,53.95
2019-02-19T08:41:47.314Z,53.96
2019-02-19T08:44:14.485Z,53.85
2019-02-19T08:46:41.737Z,53.59
2019-02-19T08:49:09.843Z,53.57
2019-02-19T08:51:37.041Z,53.59
2019-02-19T08:54:04.553Z,53.49
2019-02-19T08:56:31.760Z,53.45
2019-02-19T08:58:59.111Z,53.48
2019-02-19T09:01:26.428Z,53.45
2019-02-19T09:03:53.661Z,53.42
2019-02-19T09:06:20.860Z,53.39
2019-02-19T09:08:48.071Z,53.21
2019-02-19T09:11:15.545Z,53.05
2019-02-19T09:13:42.738Z,53.02
2019-02-19T09:16:10.089Z,53.07
2019-02-19T09:18:37.286Z,52.97
2019-02-19T09:21:04.459Z,53.01
2019-02-19T09:23:38.378Z,53.08
2019-02-19T09:26:06.005Z,52.94
2019-02-19T09:28:33.385Z,52.76
2019-02-19T09:31:00.721Z,52.73
2019-02-19T09:33:28.121Z,52.67
2019-02-19T09:35:55.350Z,52.61
2019-02-19T09:38:22.534Z,52.61
2019-02-19T09:40:49.802Z,52.45
2019-02-19T09:43:17.012Z,52.51
2019-02-19T09:45:44.256Z,52.38
2019-02-19T09:48:11.599Z,52.31
2019-02-19T09:50:38.763Z,52.29
2019-02-19T09:53:05.981Z,52.24
2019-02-19T09:55:33.179Z,52.22
2019-02-19T09:58:00.583Z,52.21
2019-02-19T10:00:27.934Z,52.02
2019-02-19T10:02:55.129Z,52.05
2019-02-19T10:05:22.338Z,51.99
2019-02-19T10:07:49.584Z,51.88
2019-02-19T10:10:17.031Z,51.68
2019-02-19T10:12:44.236Z,51.69
2019-02-19T10:15:11.896Z,51.69
2019-02-19T10:17:39.087Z,51.74
2019-02-19T10:20:06.978Z,51.84
2019-02-19T10:22:37.333Z,51.67
2019-02-19T10:25:05.642Z,51.69
2019-02-19T10:27:32.989Z,51.83
2019-02-19T10:30:00.202Z,51.76
2019-02-19T10:32:27.423Z,51.75
2019-02-19T10:34:54.677Z,51.75
2019-02-19T10:37:21.975Z,51.76
2019-02-19T10:39:49.356Z,51.71
2019-02-19T10:42:16.556Z,51.66
2019-02-19T10:44:43.725Z,51.75
2019-02-19T10:47:10.980Z,51.74
2019-02-19T10:49:38.175Z,51.56
2019-02-19T10:52:05.380Z,51.83
2019-02-19T10:54:32.663Z,51.60
2019-02-19T10:56:59.850Z,51.79
2019-02-19T10:59:27.205Z,51.80
2019-02-19T11:01:54.747Z,51.70
2019-02-19T11:04:21.969Z,51.70
2019-02-19T11:06:49.122Z,51.77
2019-02-19T11:09:16.407Z,51.90
2019-02-19T11:11:44.796Z,51.89
2019-02-19T11:14:12.173Z,52.35
2019-02-19T11:16:39.449Z,52.19
2019-02-19T11:19:06.806Z,52.12
2019-02-19T11:21:34.478Z,52.44
2019-02-19T11:24:01.892Z,52.52
2019-02-19T11:26:29.155Z,52.52
2019-02-19T11:28:56.472Z,52.85
2019-02-19T11:31:23.769Z,52.82
2019-02-19T11:33:55.292Z,52.85
2019-02-19T11:36:22.953Z,52.84
2019-02-19T11:38:50.755Z,52.71
2019-02-19T11:41:18.050Z,52.71
2019-02-19T11:43:45.372Z,52.64
2019-02-19T11:46:12.557Z,52.33
2019-02-19T11:48:39.770Z,52.03
2019-02-19T11:51:07.044Z,52.38
2019-02-19T11:53:34.350Z,52.40
2019-02-19T11:56:01.613Z,52.32
2019-02-19T11:58:28.886Z,52.30
2019-02-19T12:00:56.161Z,52.64
2019-02-19T12:03:23.501Z,52.80
2019-02-19T12:05:50.796Z,52.31
2019-02-19T12:08:18.082Z,52.25
2019-02-19T12:10:45.572Z,52.17
2019-02-19T12:13:12.901Z,52.45
2019-02-19T12:15:40.145Z,52.17
2019-02-19T12:18:07.457Z,52.03
2019-02-19T12:20:34.713Z,52.06
2019-02-19T12:23:01.939Z,51.94
2019-02-19T12:25:29.160Z,51.83
2019-02-19T12:27:57.651Z,51.77
2019-02-19T12:30:24.943Z,51.62
2019-02-19T12:32:52.259Z,51.57
2019-02-19T12:35:19.564Z,51.45
2019-02-19T12:37:47.132Z,51.38
2019-02-19T12:40:14.480Z,51.47
2019-02-19T12:42:41.809Z,51.45
2019-02-19T12:45:11.572Z,51.26
2019-02-19T12:47:38.892Z,51.41
2019-02-19T12:50:08.003Z,51.34
2019-02-19T12:52:35.440Z,51.31
2019-02-19T12:55:02.647Z,51.40
2019-02-19T12:57:30.075Z,51.58
2019-02-19T12:59:57.371Z,51.45
2019-02-19T13:02:24.643Z,51.42
2019-02-19T13:04:52.106Z,51.36
2019-02-19T13:07:21.391Z,51.32
2019-02-19T13:09:48.946Z,51.50
2019-02-19T13:12:21.625Z,51.41
2019-02-19T13:14:49.675Z,51.23
2019-02-19T13:17:16.855Z,51.30
2019-02-19T13:19:44.101Z,51.28
2019-02-19T13:22:11.269Z,51.26
2019-02-19T13:24:38.478Z,51.26
2019-02-19T13:27:06.046Z,51.29
2019-02-19T13:29:33.221Z,51.30
2019-02-19T13:32:00.491Z,51.25
2019-02-19T13:34:27.698Z,51.40
2019-02-19T13:36:55.119Z,51.37
2019-02-19T13:39:22.343Z,51.29
2019-02-19T13:41:49.593Z,51.34
2019-02-19T13:44:16.791Z,51.38
2019-02-19T13:46:44.110Z,51.43
2019-02-19T13:49:12.430Z,51.36
2019-02-19T13:51:39.831Z,51.33
2019-02-19T13:54:17.383Z,51.54
2019-02-19T13:56:44.600Z,51.63
2019-02-19T13:59:11.794Z,51.47
2019-02-19T14:01:38.973Z,51.41
2019-02-19T14:04:06.368Z,51.41
2019-02-19T14:06:33.570Z,51.32
2019-02-19T14:09:00.773Z,51.24
2019-02-19T14:11:28.189Z,51.24
2019-02-19T14:14:20.755Z,51.22
2019-02-19T14:16:52.246Z,51.14
2019-02-19T14:19:40.994Z,51.06
2019-02-19T14:22:26.493Z,50.94
2019-02-19T14:25:13.257Z,50.88
2019-02-19T14:28:02.799Z,50.75
2019-02-19T14:30:53.138Z,50.73
2019-02-19T14:33:29.295Z,50.76
2019-02-19T14:36:10.876Z,50.67
2019-02-19T14:39:03.437Z,50.61
2019-02-19T14:41:48.879Z,50.59
2019-02-19T14:44:34.500Z,50.55
2019-02-19T14:47:08.464Z,50.46
2019-02-19T14:50:07.465Z,50.38
2019-02-19T14:52:54.259Z,50.49
2019-02-19T14:55:41.039Z,50.54
2019-02-19T14:58:25.560Z,50.52
2019-02-19T15:01:21.778Z,50.59
2019-02-19T15:04:20.683Z,50.65
2019-02-19T15:07:13.583Z,50.62
2019-02-19T15:10:03.201Z,50.48
2019-02-19T15:12:58.962Z,50.55
2019-02-19T15:15:48.398Z,50.58
2019-02-19T15:18:33.739Z,50.44
2019-02-19T15:21:38.920Z,50.75
2019-02-19T15:24:25.770Z,50.83
2019-02-19T15:27:11.327Z,50.72
2019-02-19T15:29:56.885Z,50.73
2019-02-19T15:32:46.587Z,50.68
2019-02-19T15:35:45.295Z,50.58
2019-02-19T15:38:34.580Z,50.66
2019-02-19T15:41:27.404Z,50.53
2019-02-19T15:44:14.219Z,50.67
2019-02-19T15:47:03.831Z,50.56
2019-02-19T15:49:49.339Z,50.63
2019-02-19T15:52:35.236Z,50.59
2019-02-19T15:55:14.888Z,50.64
2019-02-19T15:57:48.475Z,50.67
2019-02-19T16:00:44.389Z,50.61
2019-02-19T16:03:19.713Z,50.63
2019-02-19T16:05:57.975Z,50.54
2019-02-19T16:08:40.198Z,50.59
2019-02-19T16:11:29.975Z,50.37
2019-02-19T16:14:16.602Z,50.56
2019-02-19T16:17:12.002Z,50.48
2019-02-19T16:19:46.874Z,50.49
2019-02-19T16:22:27.727Z,50.52
2019-02-19T16:25:13.211Z,50.41
2019-02-19T16:28:15.362Z,50.55
2019-02-19T16:31:00.925Z,50.39
2019-02-19T16:33:47.677Z,50.40
2019-02-19T16:36:35.033Z,50.46
2019-02-19T16:39:40.184Z,50.50
2019-02-19T16:42:27.094Z,50.36
2019-02-19T16:45:07.884Z,50.48
2019-02-19T16:47:45.078Z,50.27
2019-02-19T16:50:34.859Z,50.37
2019-02-19T16:53:10.967Z,50.39
2019-02-19T16:56:00.062Z,50.42
2019-02-19T16:58:35.294Z,50.20
2019-02-19T17:01:39.991Z,50.20
2019-02-19T17:04:17.467Z,50.37
2019-02-19T17:06:54.590Z,50.41
2019-02-19T17:09:38.886Z,50.46
2019-02-19T17:12:18.414Z,50.17
2019-02-19T17:15:01.476Z,50.35
2019-02-19T17:17:54.306Z,50.23
2019-02-19T17:20:44.134Z,50.35
2019-02-19T17:23:26.062Z,50.35
2019-02-19T17:26:21.754Z,50.61
2019-02-19T17:29:23.736Z,51.11
2019-02-19T17:32:17.647Z,50.77
2019-02-19T17:35:04.413Z,50.61
2019-02-19T17:37:53.884Z,50.53
2019-02-19T17:40:40.677Z,50.53
2019-02-19T17:43:31.628Z,50.25
2019-02-19T17:46:14.392Z,50.66
2019-02-19T17:49:01.164Z,50.46
2019-02-19T17:51:48.037Z,50.71
2019-02-19T17:54:39.693Z,50.57
2019-02-19T17:57:27.205Z,50.39
2019-02-19T18:00:14.195Z,50.43
2019-02-19T18:02:59.610Z,50.17
2019-02-19T18:05:46.075Z,50.16
2019-02-19T18:08:29.246Z,50.09
2019-02-19T18:11:14.768Z,50.18
2019-02-19T18:14:04.619Z,50.10
2019-02-19T18:16:54.192Z,50.05
2019-02-19T18:19:21.473Z,49.92
2019-02-19T18:21:48.679Z,49.92
2019-02-19T18:24:16.002Z,49.84
2019-02-19T18:26:44.746Z,49.71
2019-02-19T18:29:12.046Z,49.79
2019-02-19T18:31:39.271Z,49.84
2019-02-19T18:34:06.624Z,49.75
2019-02-19T18:36:33.839Z,49.81
2019-02-19T18:39:01.024Z,49.68
2019-02-19T18:41:28.314Z,49.70
2019-02-19T18:43:55.480Z,49.73
2019-02-19T18:46:22.703Z,49.69
2019-02-19T18:48:49.902Z,49.75
2019-02-19T18:51:17.122Z,49.69
2019-02-19T18:53:44.308Z,49.55
2019-02-19T18:56:11.509Z,49.65
2019-02-19T18:58:38.713Z,49.65
2019-02-19T19:01:05.880Z,49.52
2019-02-19T19:03:33.138Z,49.56
2019-02-19T19:06:00.335Z,49.46
2019-02-19T19:08:27.570Z,49.33
2019-02-19T19:10:54.773Z,49.49
2019-02-19T19:13:22.038Z,49.35
2019-02-19T19:15:49.261Z,49.51
2019-02-19T19:18:19.005Z,49.75
2019-02-19T19:20:45.784Z,49.99
2019-02-19T19:23:13.758Z,50.00
2019-02-19T19:25:41.085Z,50.07
2019-02-19T19:28:08.431Z,50.02
2019-02-19T19:30:35.752Z,50.28
2019-02-19T19:33:03.127Z,50.21
2019-02-19T19:35:30.421Z,50.07
2019-02-19T19:37:58.051Z,49.80
2019-02-19T19:40:25.495Z,49.83
2019-02-19T19:42:52.766Z,50.17
2019-02-19T19:45:20.038Z,49.86
2019-02-19T19:47:47.294Z,50.46
2019-02-19T19:50:14.589Z,50.70
2019-02-19T19:52:41.834Z,50.70
2019-02-19T19:55:09.077Z,50.80
2019-02-19T19:57:36.346Z,50.42
2019-02-19T20:00:03.830Z,50.08
2019-02-19T20:02:31.059Z,49.99
2019-02-19T20:04:58.632Z,50.72
2019-02-19T20:07:25.835Z,50.77
2019-02-19T20:09:53.160Z,51.05
2019-02-19T20:12:20.609Z,50.66
2019-02-19T20:14:47.835Z,50.24
2019-02-19T20:17:15.386Z,50.35
2019-02-19T20:19:42.603Z,51.08
2019-02-19T20:22:09.800Z,51.18
2019-02-19T20:24:37.177Z,51.02
2019-02-19T20:27:04.478Z,50.85
2019-02-19T20:29:31.700Z,50.63
2019-02-19T20:32:00.156Z,50.79
2019-02-19T20:34:27.341Z,50.53
2019-02-19T20:36:54.551Z,50.88
2019-02-19T20:39:21.855Z,50.46
2019-02-19T20:41:49.238Z,50.43
2019-02-19T20:44:16.673Z,50.64
2019-02-19T20:46:43.985Z,50.64
2019-02-19T20:49:11.203Z,50.80
2019-02-19T20:51:38.434Z,50.91
2019-02-19T20:54:05.764Z,51.37
2019-02-19T20:56:33.061Z,51.52
2019-02-19T20:59:00.362Z,51.33
2019-02-19T21:01:27.533Z,51.15
2019-02-19T21:03:54.777Z,51.42
2019-02-19T21:06:21.964Z,51.39
2019-02-19T21:08:49.288Z,51.23
2019-02-19T21:11:16.493Z,51.17
2019-02-19T21:13:43.825Z,50.93
2019-02-19T21:16:11.111Z,50.85
2019-02-19T21:18:38.294Z,51.00
2019-02-19T21:21:05.478Z,50.77
2019-02-19T21:23:32.756Z,50.83
2019-02-19T21:26:00.033Z,50.90
2019-02-19T21:28:27.208Z,50.91
2019-02-19T21:30:54.506Z,50.87
2019-02-19T21:33:21.947Z,50.80
2019-02-19T21:35:49.190Z,50.77
2019-02-19T21:38:16.425Z,50.83
2019-02-19T21:40:43.716Z,50.77
2019-02-19T21:43:11.044Z,50.82
2019-02-19T21:45:38.192Z,50.75
2019-02-19T21:48:05.401Z,50.74
2019-02-19T21:50:32.618Z,50.91
2019-02-19T21:52:59.925Z,51.03
2019-02-19T21:55:27.179Z,50.78
2019-02-19T21:57:54.576Z,51.01
2019-02-19T22:00:22.162Z,50.82
2019-02-19T22:02:49.484Z,50.83
2019-02-19T22:05:16.703Z,50.73
2019-02-19T22:07:43.930Z,51.02
2019-02-19T22:10:11.267Z,51.44
2019-02-19T22:12:38.626Z,51.44
2019-02-19T22:15:05.986Z,51.58
2019-02-19T22:17:33.236Z,51.56
2019-02-19T22:20:03.042Z,51.49
2019-02-19T22:22:31.645Z,52.25
2019-02-19T22:24:58.856Z,52.63
2019-02-19T22:27:26.201Z,52.83
2019-02-19T22:29:53.467Z,52.69
2019-02-19T22:32:20.707Z,52.80
2019-02-19T22:34:47.919Z,52.97
2019-02-19T22:37:15.127Z,53.05
2019-02-19T22:39:42.469Z,52.84
2019-02-19T22:42:09.767Z,53.09
2019-02-19T22:44:37.008Z,53.11
2019-02-19T22:47:04.232Z,53.36
2019-02-19T22:49:31.449Z,53.02
2019-02-19T22:51:58.616Z,53.48
2019-02-19T22:54:54.173Z,53.56
2019-02-19T22:57:21.425Z,53.61
2019-02-19T22:59:48.929Z,53.48
2019-02-19T23:02:21.285Z,53.92
2019-02-19T23:04:48.597Z,53.61
2019-02-19T23:07:15.828Z,54.10
2019-02-19T23:09:43.095Z,54.00
2019-02-19T23:12:11.548Z,55.03
2019-02-19T23:14:40.781Z,54.83
2019-02-19T23:17:10.628Z,54.56
2019-02-19T23:19:38.838Z,54.25
2019-02-19T23:22:06.339Z,54.02
2019-02-19T23:24:33.659Z,53.96
2019-02-19T23:27:00.930Z,53.29
2019-02-19T23:29:28.326Z,53.11
2019-02-19T23:31:55.530Z,54.18
2019-02-19T23:34:23.400Z,53.85
2019-02-19T23:37:01.644Z,54.51
2019-02-19T23:39:29.045Z,53.92
2019-02-19T23:41:56.361Z,53.55
2019-02-19T23:44:23.599Z,53.10
2019-02-19T23:46:50.861Z,53.08
2019-02-19T23:49:18.698Z,52.73
2019-02-19T23:51:45.958Z,52.94
2019-02-19T23:54:13.177Z,52.79
2019-02-19T23:56:40.465Z,52.56
2019-02-19T23:59:07.733Z,52.78
